createdAt,value
2022-10-12T00:01:11.606Z,10.90
2022-10-12T00:03:39.189Z,10.33
2022-10-12T00:06:15.169Z,10.57
2022-10-12T00:08:45.382Z,14.70
2022-10-12T00:11:20.714Z,12.37
2022-10-12T00:13:48.430Z,10.50
2022-10-12T00:16:19.227Z,10.80
2022-10-12T00:18:54.926Z,10.13
2022-10-12T00:21:24.481Z,9.10
2022-10-12T00:23:52.533Z,9.27
2022-10-12T00:26:24.764Z,8.70
2022-10-12T00:28:59.973Z,9.13
2022-10-12T00:31:29.503Z,8.43
2022-10-12T00:34:00.874Z,8.17
2022-10-12T00:36:32.789Z,8.20
2022-10-12T00:39:01.524Z,7.10
2022-10-12T00:41:37.887Z,8.10
2022-10-12T00:44:25.387Z,8.33
2022-10-12T00:46:55.360Z,10.50
2022-10-12T00:49:25.648Z,9.17
2022-10-12T00:51:59.872Z,8.03
2022-10-12T00:54:32.915Z,8.17
2022-10-12T00:57:03.803Z,8.00
2022-10-12T00:59:45.155Z,7.87
2022-10-12T01:02:14.188Z,6.63
2022-10-12T01:04:42.428Z,7.40
2022-10-12T01:07:10.724Z,8.50
2022-10-12T01:09:38.496Z,9.67
2022-10-12T01:12:09.323Z,9.70
2022-10-12T01:14:37.363Z,9.30
2022-10-12T01:17:35.338Z,8.27
2022-10-12T01:21:00.130Z,8.10
2022-10-12T01:24:08.656Z,8.00
2022-10-12T01:27:02.408Z,7.43
2022-10-12T01:30:05.346Z,7.37
2022-10-12T01:33:09.563Z,7.80
2022-10-12T01:36:07.602Z,7.40
2022-10-12T01:39:50.042Z,7.57
2022-10-12T01:42:35.062Z,7.73
2022-10-12T01:45:18.032Z,8.40
2022-10-12T01:47:52.668Z,9.10
2022-10-12T01:50:22.782Z,8.33
2022-10-12T01:53:06.343Z,7.93
2022-10-12T01:55:59.388Z,7.93
2022-10-12T01:58:43.173Z,9.30
2022-10-12T02:01:30.854Z,8.87
2022-10-12T02:04:17.334Z,10.80
2022-10-12T02:06:54.467Z,10.97
2022-10-12T02:09:28.057Z,8.53
2022-10-12T02:12:00.356Z,9.73
2022-10-12T02:14:45.513Z,9.70
2022-10-12T02:17:17.981Z,9.40
2022-10-12T02:19:58.105Z,8.80
2022-10-12T02:22:35.849Z,7.87
2022-10-12T02:25:07.686Z,8.33
2022-10-12T02:27:40.670Z,8.63
2022-10-12T02:30:09.527Z,9.40
2022-10-12T02:33:07.854Z,10.53
2022-10-12T02:35:43.991Z,9.67
2022-10-12T02:38:27.839Z,10.13
2022-10-12T02:41:06.555Z,10.70
2022-10-12T02:43:44.529Z,10.40
2022-10-12T02:46:12.804Z,9.60
2022-10-12T02:48:42.325Z,15.40
2022-10-12T02:51:11.792Z,14.73
2022-10-12T02:53:39.798Z,14.20
2022-10-12T02:56:13.150Z,10.70
2022-10-12T02:58:44.208Z,12.17
2022-10-12T03:01:12.133Z,15.17
2022-10-12T03:03:40.733Z,13.30
2022-10-12T03:06:08.718Z,10.97
2022-10-12T03:08:36.499Z,14.10
2022-10-12T03:11:07.201Z,6.03
2022-10-12T03:13:35.218Z,6.00
2022-10-12T03:16:05.248Z,5.13
2022-10-12T03:18:32.972Z,6.40
2022-10-12T03:21:00.862Z,6.30
2022-10-12T03:23:28.850Z,6.50
2022-10-12T03:25:56.393Z,5.53
2022-10-12T03:28:24.104Z,5.30
2022-10-12T03:30:51.836Z,7.17
2022-10-12T03:33:19.684Z,7.10
2022-10-12T03:35:47.687Z,7.37
2022-10-12T03:38:16.807Z,5.93
2022-10-12T03:40:45.389Z,6.40
2022-10-12T03:43:13.817Z,7.80
2022-10-12T03:45:41.385Z,6.60
2022-10-12T03:48:09.611Z,7.60
2022-10-12T03:50:37.299Z,6.83
2022-10-12T03:53:06.506Z,7.00
2022-10-12T03:55:34.660Z,8.13
2022-10-12T03:58:02.343Z,8.20
2022-10-12T04:00:29.960Z,8.47
2022-10-12T04:02:57.471Z,7.30
2022-10-12T04:05:25.218Z,8.20
2022-10-12T04:07:52.718Z,7.60
2022-10-12T04:10:20.470Z,7.30
2022-10-12T04:12:47.986Z,7.50
2022-10-12T04:15:18.369Z,8.37
2022-10-12T04:17:46.402Z,8.00
2022-10-12T04:20:14.086Z,8.33
2022-10-12T04:22:41.594Z,7.63
2022-10-12T04:25:10.681Z,8.93
2022-10-12T04:27:38.413Z,9.23
2022-10-12T04:30:06.912Z,8.00
2022-10-12T04:32:34.407Z,8.50
2022-10-12T04:35:01.985Z,7.50
2022-10-12T04:37:29.466Z,6.67
2022-10-12T04:39:57.037Z,6.50
2022-10-12T04:42:24.618Z,8.33
2022-10-12T04:44:52.157Z,17.70
2022-10-12T04:47:19.739Z,16.10
2022-10-12T04:49:47.182Z,19.83
2022-10-12T04:52:14.758Z,24.20
2022-10-12T04:54:42.224Z,27.60
2022-10-12T04:57:09.737Z,31.20
2022-10-12T04:59:37.246Z,23.80
2022-10-12T05:02:04.900Z,21.27
2022-10-12T05:04:32.535Z,13.87
2022-10-12T05:07:00.076Z,8.53
2022-10-12T05:09:27.623Z,8.40
2022-10-12T05:11:55.182Z,6.43
2022-10-12T05:14:22.665Z,7.77
2022-10-12T05:16:50.199Z,6.70
2022-10-12T05:19:17.659Z,8.73
2022-10-12T05:21:45.089Z,7.47
2022-10-12T05:24:12.626Z,5.30
2022-10-12T05:26:40.075Z,4.80
2022-10-12T05:29:07.704Z,5.97
2022-10-12T05:31:35.138Z,6.63
2022-10-12T05:34:02.656Z,6.10
2022-10-12T05:36:30.159Z,6.00
2022-10-12T05:38:57.682Z,5.80
2022-10-12T05:41:25.158Z,5.67
2022-10-12T05:43:53.856Z,6.00
2022-10-12T05:46:21.645Z,7.37
2022-10-12T05:48:49.157Z,14.80
2022-10-12T05:51:16.676Z,19.03
2022-10-12T05:53:44.110Z,14.33
2022-10-12T05:56:11.650Z,10.63
2022-10-12T05:58:39.168Z,8.60
2022-10-12T06:01:13.258Z,7.00
2022-10-12T06:03:40.866Z,8.03
2022-10-12T06:06:08.694Z,8.37
2022-10-12T06:08:36.253Z,11.77
2022-10-12T06:11:04.749Z,10.47
2022-10-12T06:13:32.347Z,7.53
2022-10-12T06:15:59.828Z,6.03
2022-10-12T06:18:27.443Z,5.83
2022-10-12T06:23:43.610Z,6.93
2022-10-12T06:26:11.055Z,7.33
2022-10-12T06:28:38.885Z,8.57
2022-10-12T06:31:06.636Z,8.93
2022-10-12T06:33:34.129Z,8.80
2022-10-12T06:36:01.614Z,9.97
2022-10-12T06:38:29.104Z,11.37
2022-10-12T06:40:56.575Z,11.40
2022-10-12T06:43:24.459Z,10.67
2022-10-12T06:45:51.957Z,11.07
2022-10-12T06:48:19.561Z,10.53
2022-10-12T06:50:48.250Z,10.77
2022-10-12T06:53:15.865Z,10.27
2022-10-12T06:55:43.399Z,10.80
2022-10-12T06:58:11.323Z,11.87
2022-10-12T07:00:38.993Z,11.50
2022-10-12T07:03:06.554Z,10.97
2022-10-12T07:05:34.048Z,11.00
2022-10-12T07:08:01.530Z,11.27
2022-10-12T07:10:29.328Z,12.23
2022-10-12T07:12:56.863Z,12.83
2022-10-12T07:15:24.328Z,13.73
2022-10-12T07:17:51.838Z,13.30
2022-10-12T07:20:19.452Z,13.27
2022-10-12T07:22:47.241Z,11.67
2022-10-12T07:25:14.853Z,12.97
2022-10-12T07:27:42.469Z,13.03
2022-10-12T07:30:11.311Z,12.60
2022-10-12T07:32:38.889Z,11.57
2022-10-12T07:35:06.866Z,11.10
2022-10-12T07:37:34.316Z,11.03
2022-10-12T07:40:01.927Z,10.50
2022-10-12T07:42:29.380Z,11.13
2022-10-12T07:44:56.918Z,9.97
2022-10-12T07:47:24.347Z,9.80
2022-10-12T07:49:51.838Z,9.00
2022-10-12T07:52:19.307Z,9.63
2022-10-12T07:54:46.821Z,9.07
2022-10-12T07:57:14.474Z,9.10
2022-10-12T07:59:41.935Z,8.20
2022-10-12T08:02:12.348Z,8.40
2022-10-12T08:04:40.017Z,8.50
2022-10-12T08:07:07.506Z,8.67
2022-10-12T08:09:36.449Z,8.70
2022-10-12T08:12:04.852Z,8.43
2022-10-12T08:14:32.421Z,9.03
2022-10-12T08:16:59.905Z,8.80
2022-10-12T08:19:30.625Z,7.87
2022-10-12T08:22:00.613Z,8.47
2022-10-12T08:24:28.058Z,8.07
2022-10-12T08:27:00.418Z,7.13
2022-10-12T08:29:28.789Z,7.53
2022-10-12T08:31:56.446Z,7.93
2022-10-12T08:34:25.457Z,7.63
2022-10-12T08:36:52.957Z,6.47
2022-10-12T08:39:20.408Z,6.80
2022-10-12T08:42:17.085Z,7.77
2022-10-12T08:44:47.495Z,5.57
2022-10-12T08:47:40.985Z,6.53
2022-10-12T08:50:33.295Z,6.27
2022-10-12T08:53:15.762Z,6.03
2022-10-12T08:55:45.811Z,5.40
2022-10-12T08:58:24.164Z,5.30
2022-10-12T09:00:59.500Z,4.80
2022-10-12T09:04:11.515Z,3.50
2022-10-12T09:07:06.885Z,3.67
2022-10-12T09:09:47.399Z,4.40
2022-10-12T09:12:42.557Z,4.27
2022-10-12T09:15:28.493Z,3.73
2022-10-12T09:17:58.855Z,3.87
2022-10-12T09:20:33.217Z,3.00
2022-10-12T09:23:30.918Z,3.27
2022-10-12T09:26:12.411Z,3.43
2022-10-12T09:28:58.415Z,3.00
2022-10-12T09:31:50.739Z,3.17
2022-10-12T09:34:19.399Z,3.10
2022-10-12T09:36:47.277Z,2.90
2022-10-12T09:39:32.402Z,3.27
2022-10-12T09:42:00.267Z,3.40
2022-10-12T09:44:44.354Z,3.10
2022-10-12T09:47:30.287Z,3.30
2022-10-12T09:50:04.817Z,3.30
2022-10-12T09:52:45.389Z,3.10
2022-10-12T09:55:16.106Z,3.10
2022-10-12T09:57:57.004Z,2.97
2022-10-12T10:00:33.097Z,2.87
2022-10-12T10:03:02.445Z,2.67
2022-10-12T10:05:36.358Z,2.73
2022-10-12T10:08:24.518Z,2.20
2022-10-12T10:10:55.656Z,2.60
2022-10-12T10:13:28.265Z,2.30
2022-10-12T10:16:11.448Z,2.60
2022-10-12T10:19:03.715Z,2.20
2022-10-12T10:21:38.241Z,2.20
2022-10-12T10:24:28.452Z,2.10
2022-10-12T10:27:05.455Z,2.20
2022-10-12T10:29:32.876Z,2.77
2022-10-12T10:32:26.734Z,2.20
2022-10-12T10:35:26.681Z,1.40
2022-10-12T10:37:56.738Z,1.93
2022-10-12T10:40:31.808Z,1.80
2022-10-12T10:43:28.040Z,1.40
2022-10-12T10:46:03.148Z,1.53
2022-10-12T10:48:58.100Z,1.30
2022-10-12T10:51:54.241Z,1.43
2022-10-12T10:54:27.028Z,1.77
2022-10-12T10:57:19.843Z,1.60
2022-10-12T11:00:37.409Z,1.40
2022-10-12T11:03:25.906Z,1.53
2022-10-12T11:06:25.501Z,1.60
2022-10-12T11:09:04.214Z,1.70
2022-10-12T11:11:35.685Z,1.70
2022-10-12T11:14:29.552Z,1.40
2022-10-12T11:17:07.390Z,1.17
2022-10-12T11:19:42.973Z,1.03
2022-10-12T11:22:22.704Z,1.23
2022-10-12T11:25:31.649Z,1.33
2022-10-12T11:27:59.282Z,1.17
2022-10-12T11:30:39.686Z,1.30
2022-10-12T11:33:14.674Z,2.50
2022-10-12T11:35:46.875Z,1.10
2022-10-12T11:38:23.030Z,1.17
2022-10-12T11:41:34.542Z,1.10
2022-10-12T11:44:13.586Z,1.20
2022-10-12T11:46:56.703Z,1.20
2022-10-12T11:49:28.716Z,1.20
2022-10-12T11:52:01.723Z,1.20
2022-10-12T11:54:33.852Z,1.40
2022-10-12T11:57:11.036Z,1.20
2022-10-12T11:59:47.437Z,1.10
2022-10-12T12:02:27.889Z,1.17
2022-10-12T12:04:56.563Z,1.67
2022-10-12T12:07:47.216Z,1.03
2022-10-12T12:10:35.294Z,1.50
2022-10-12T12:13:14.958Z,1.33
2022-10-12T12:15:49.943Z,1.27
2022-10-12T12:18:33.972Z,1.48
2022-10-12T12:21:08.475Z,1.15
2022-10-12T12:23:54.370Z,1.33
2022-10-12T12:26:29.082Z,1.45
2022-10-12T12:29:26.477Z,1.55
2022-10-12T12:32:00.834Z,1.60
2022-10-12T12:34:29.213Z,1.40
2022-10-12T12:36:58.619Z,1.60
2022-10-12T12:39:32.173Z,1.60
2022-10-12T12:42:03.722Z,1.50
2022-10-12T12:44:43.860Z,1.80
2022-10-12T12:47:43.430Z,1.30
2022-10-12T12:50:34.195Z,1.37
2022-10-12T12:53:28.648Z,1.50
2022-10-12T12:56:06.773Z,1.47
2022-10-12T12:59:08.767Z,1.30
2022-10-12T13:02:30.132Z,1.60
2022-10-12T13:05:27.969Z,1.47
2022-10-12T13:08:27.384Z,1.57
2022-10-12T13:11:40.852Z,1.43
2022-10-12T13:14:45.076Z,1.40
2022-10-12T13:17:48.845Z,1.30
2022-10-12T13:20:28.539Z,1.20
2022-10-12T13:22:58.364Z,1.70
2022-10-12T13:25:49.465Z,1.40
2022-10-12T13:28:29.442Z,1.40
2022-10-12T13:31:09.371Z,1.50
2022-10-12T13:33:46.528Z,1.40
2022-10-12T13:36:32.996Z,1.30
2022-10-12T13:39:19.288Z,1.30
2022-10-12T13:41:50.981Z,1.33
2022-10-12T13:44:27.722Z,1.27
2022-10-12T13:47:04.399Z,1.73
2022-10-12T13:49:43.636Z,1.60
2022-10-12T13:52:13.800Z,1.37
2022-10-12T13:54:47.576Z,1.17
2022-10-12T13:57:35.855Z,1.50
2022-10-12T14:00:14.978Z,1.33
2022-10-12T14:03:06.595Z,1.20
2022-10-12T14:05:42.587Z,1.43
2022-10-12T14:08:17.824Z,1.20
2022-10-12T14:10:45.765Z,1.33
2022-10-12T14:13:27.438Z,1.30
2022-10-12T14:15:56.313Z,1.50
2022-10-12T14:18:46.263Z,1.53
2022-10-12T14:21:26.897Z,1.70
2022-10-12T14:24:09.614Z,1.90
2022-10-12T14:26:47.392Z,3.90
2022-10-12T14:29:45.723Z,1.97
2022-10-12T14:32:13.103Z,1.30
2022-10-12T14:34:47.813Z,1.93
2022-10-12T14:37:15.163Z,1.60
2022-10-12T14:39:45.849Z,1.30
2022-10-12T14:42:31.979Z,1.37
2022-10-12T14:45:00.450Z,1.40
2022-10-12T14:47:38.560Z,1.60
2022-10-12T14:50:09.917Z,2.07
2022-10-12T14:52:46.993Z,2.00
2022-10-12T14:55:20.678Z,2.40
2022-10-12T14:57:49.628Z,3.07
2022-10-12T15:00:27.284Z,2.53
2022-10-12T15:02:55.169Z,1.53
2022-10-12T15:05:24.674Z,1.50
2022-10-12T15:07:52.918Z,3.73
2022-10-12T15:10:23.294Z,10.03
2022-10-12T15:12:51.760Z,9.40
2022-10-12T15:15:48.427Z,3.83
2022-10-12T15:18:15.941Z,2.00
2022-10-12T15:20:49.003Z,2.20
2022-10-12T15:23:17.207Z,3.10
2022-10-12T15:25:53.672Z,5.03
2022-10-12T15:28:22.772Z,7.10
2022-10-12T15:31:16.431Z,7.57
2022-10-12T15:33:40.420Z,8.50
2022-10-12T15:36:09.080Z,5.73
2022-10-12T15:38:36.796Z,5.90
2022-10-12T15:41:04.834Z,9.80
2022-10-12T15:43:33.831Z,15.20
2022-10-12T15:46:03.273Z,17.10
2022-10-12T15:48:30.801Z,11.00
2022-10-12T15:50:58.301Z,7.70
2022-10-12T15:53:26.599Z,5.70
2022-10-12T15:55:55.947Z,6.13
2022-10-12T15:58:23.512Z,12.63
2022-10-12T16:00:51.339Z,14.10
2022-10-12T16:03:26.077Z,11.50
2022-10-12T16:05:54.735Z,10.33
2022-10-12T16:08:22.291Z,10.90
2022-10-12T16:10:50.159Z,11.63
2022-10-12T16:13:17.833Z,16.90
2022-10-12T16:15:45.660Z,20.47
2022-10-12T16:18:15.665Z,21.07
2022-10-12T16:20:46.664Z,17.10
2022-10-12T16:23:25.423Z,10.20
2022-10-12T16:25:53.434Z,8.13
2022-10-12T16:28:22.572Z,8.23
2022-10-12T16:30:52.199Z,8.80
2022-10-12T16:33:20.153Z,11.03
2022-10-12T16:35:47.958Z,9.40
2022-10-12T16:38:15.492Z,9.43
2022-10-12T16:40:43.498Z,11.33
2022-10-12T16:43:11.512Z,8.30
2022-10-12T16:45:39.220Z,7.37
2022-10-12T16:48:06.891Z,7.30
2022-10-12T16:50:34.467Z,9.60
2022-10-12T16:53:01.940Z,9.63
2022-10-12T16:55:29.511Z,13.43
2022-10-12T16:57:57.025Z,17.83
2022-10-12T17:00:24.559Z,9.73
2022-10-12T17:02:55.266Z,12.03
2022-10-12T17:05:24.838Z,8.60
2022-10-12T17:07:52.414Z,9.40
2022-10-12T17:10:19.853Z,18.37
2022-10-12T17:12:47.314Z,12.67
2022-10-12T17:15:14.879Z,11.00
2022-10-12T17:17:42.390Z,11.53
2022-10-12T17:20:10.516Z,14.63
2022-10-12T17:22:38.014Z,16.83
2022-10-12T17:25:06.129Z,18.20
2022-10-12T17:27:33.628Z,20.50
2022-10-12T17:30:01.365Z,23.50
2022-10-12T17:32:28.843Z,22.87
2022-10-12T17:34:56.353Z,25.03
2022-10-12T17:37:23.890Z,18.73
2022-10-12T17:39:51.478Z,16.33
2022-10-12T17:42:20.745Z,18.17
2022-10-12T17:44:48.442Z,17.53
2022-10-12T17:47:16.324Z,17.73
2022-10-12T17:49:44.004Z,16.40
2022-10-12T17:52:11.769Z,16.40
2022-10-12T17:54:39.440Z,17.30
2022-10-12T17:57:06.954Z,19.23
2022-10-12T17:59:34.476Z,18.97
2022-10-12T18:02:02.052Z,18.23
2022-10-12T18:04:29.623Z,19.03
2022-10-12T18:06:57.159Z,15.23
2022-10-12T18:09:24.724Z,16.47
2022-10-12T18:11:52.285Z,20.93
2022-10-12T18:14:19.886Z,16.10
2022-10-12T18:16:47.412Z,14.47
2022-10-12T18:19:15.006Z,16.13
2022-10-12T18:21:42.537Z,16.10
2022-10-12T18:24:16.508Z,13.70
2022-10-12T18:26:48.214Z,15.40
2022-10-12T18:29:16.407Z,17.47
2022-10-12T18:31:44.076Z,17.13
2022-10-12T18:34:11.815Z,16.40
2022-10-12T18:36:41.014Z,16.70
2022-10-12T18:39:08.915Z,15.40
2022-10-12T18:41:36.614Z,16.90
2022-10-12T18:44:04.269Z,26.60
2022-10-12T18:46:35.033Z,34.60
2022-10-12T18:49:07.137Z,48.77
2022-10-12T18:51:42.022Z,38.03
2022-10-12T18:54:13.227Z,50.67
2022-10-12T18:56:41.976Z,59.90
2022-10-12T18:59:10.732Z,36.97
2022-10-12T19:01:38.536Z,25.27
2022-10-12T19:04:07.056Z,21.67
2022-10-12T19:06:38.677Z,29.97
2022-10-12T19:09:06.669Z,35.07
2022-10-12T19:11:34.842Z,34.30
2022-10-12T19:14:10.622Z,25.13
2022-10-12T19:16:38.079Z,21.53
2022-10-12T19:19:09.087Z,20.80
2022-10-12T19:21:36.691Z,21.03
2022-10-12T19:24:08.141Z,19.00
2022-10-12T19:26:36.291Z,18.00
2022-10-12T19:29:04.848Z,17.20
2022-10-12T19:31:42.392Z,18.83
2022-10-12T19:34:12.847Z,16.87
2022-10-12T19:36:41.873Z,17.83
2022-10-12T19:39:17.298Z,18.77
2022-10-12T19:41:45.414Z,21.60
2022-10-12T19:44:13.409Z,26.57
2022-10-12T19:46:42.886Z,27.37
2022-10-12T19:49:14.776Z,26.73
2022-10-12T19:51:43.057Z,26.53
2022-10-12T19:54:14.196Z,28.87
2022-10-12T19:56:42.030Z,26.07
2022-10-12T19:59:10.224Z,23.43
2022-10-12T20:01:39.545Z,21.73
2022-10-12T20:04:10.214Z,23.37
2022-10-12T20:06:38.743Z,23.70
2022-10-12T20:09:08.008Z,25.17
2022-10-12T20:11:36.708Z,44.80
2022-10-12T20:14:04.922Z,34.47
2022-10-12T20:16:35.039Z,29.93
2022-10-12T20:19:04.702Z,27.67
2022-10-12T20:21:32.294Z,19.17
2022-10-12T20:23:59.773Z,17.90
2022-10-12T20:26:27.610Z,20.20
2022-10-12T20:28:55.498Z,20.40
2022-10-12T20:31:24.777Z,17.73
2022-10-12T20:33:54.123Z,18.97
2022-10-12T20:36:30.504Z,17.50
2022-10-12T20:38:59.561Z,16.37
2022-10-12T20:41:28.183Z,15.97
2022-10-12T20:44:00.732Z,17.77
2022-10-12T20:46:30.109Z,17.63
2022-10-12T20:49:02.536Z,17.63
2022-10-12T20:51:44.730Z,19.87
2022-10-12T20:54:18.788Z,23.30
2022-10-12T20:56:49.659Z,22.40
2022-10-12T20:59:17.149Z,22.00
2022-10-12T21:01:45.701Z,23.03
2022-10-12T21:04:13.409Z,23.33
2022-10-12T21:06:42.793Z,20.77
2022-10-12T21:09:14.789Z,19.40
2022-10-12T21:11:43.847Z,22.07
2022-10-12T21:14:13.209Z,20.90
2022-10-12T21:16:40.722Z,21.43
2022-10-12T21:19:08.413Z,21.67
2022-10-12T21:21:35.908Z,22.27
2022-10-12T21:24:04.084Z,22.43
2022-10-12T21:26:32.023Z,21.57
2022-10-12T21:29:00.328Z,21.33
2022-10-12T21:31:32.350Z,20.80
2022-10-12T21:34:02.680Z,21.47
2022-10-12T21:36:31.204Z,21.57
2022-10-12T21:38:59.104Z,18.80
2022-10-12T21:41:29.141Z,17.17
2022-10-12T21:43:57.819Z,16.27
2022-10-12T21:46:29.760Z,16.50
2022-10-12T21:48:59.824Z,16.37
2022-10-12T21:51:29.800Z,15.27
2022-10-12T21:53:57.694Z,14.37
2022-10-12T21:56:31.494Z,15.23
2022-10-12T21:59:00.842Z,15.23
2022-10-12T22:01:34.843Z,15.57
2022-10-12T22:04:14.068Z,14.17
2022-10-12T22:06:42.454Z,14.37
2022-10-12T22:09:17.056Z,13.23
2022-10-12T22:11:45.955Z,13.10
2022-10-12T22:14:17.689Z,13.40
2022-10-12T22:16:45.819Z,12.27
2022-10-12T22:19:20.162Z,12.77
2022-10-12T22:21:49.485Z,12.63
2022-10-12T22:24:18.629Z,11.47
2022-10-12T22:26:46.779Z,11.43
2022-10-12T22:29:14.611Z,11.50
2022-10-12T22:31:42.884Z,10.93
2022-10-12T22:34:11.299Z,11.13
2022-10-12T22:36:38.870Z,11.83
2022-10-12T22:39:06.451Z,12.27
2022-10-12T22:41:33.951Z,11.63
2022-10-12T22:44:01.427Z,11.67
2022-10-12T22:46:28.952Z,11.77
2022-10-12T22:48:56.510Z,11.70
2022-10-12T22:51:36.367Z,11.27
2022-10-12T22:54:04.345Z,11.97
2022-10-12T22:56:32.443Z,12.13
2022-10-12T22:59:03.460Z,11.90
2022-10-12T23:01:30.917Z,11.33
2022-10-12T23:04:25.966Z,12.23
2022-10-12T23:06:53.459Z,11.40
2022-10-12T23:09:21.018Z,12.03
2022-10-12T23:11:51.122Z,12.03
2022-10-12T23:14:18.584Z,12.60
2022-10-12T23:16:46.089Z,15.67
2022-10-12T23:19:13.632Z,14.63
2022-10-12T23:21:41.423Z,16.23
2022-10-12T23:24:10.186Z,16.13
2022-10-12T23:26:37.806Z,14.23
2022-10-12T23:29:05.285Z,13.07
2022-10-12T23:31:35.839Z,13.60
2022-10-12T23:34:06.757Z,13.03
2022-10-12T23:36:34.783Z,14.00
2022-10-12T23:39:05.200Z,13.53
2022-10-12T23:41:33.226Z,13.23
2022-10-12T23:44:00.787Z,13.37
2022-10-12T23:46:28.356Z,13.40
2022-10-12T23:48:55.975Z,14.83
2022-10-12T23:51:23.553Z,13.93
2022-10-12T23:53:51.052Z,12.43
2022-10-12T23:56:18.604Z,12.17
2022-10-12T23:58:46.078Z,12.33
